createdAt,value
2022-12-09T00:00:19.357Z,100
2022-12-09T00:05:18.221Z,100
2022-12-09T00:10:18.714Z,100
2022-12-09T00:15:18.386Z,100
2022-12-09T00:20:18.107Z,100
2022-12-09T00:25:18.516Z,100
2022-12-09T00:30:18.477Z,100
2022-12-09T00:35:16.133Z,100
2022-12-09T00:40:16.426Z,100
2022-12-09T00:45:16.105Z,100
2022-12-09T00:50:16.311Z,100
2022-12-09T00:55:16.695Z,100
2022-12-09T01:00:16.228Z,100
2022-12-09T01:05:16.815Z,100
2022-12-09T01:10:16.424Z,100
2022-12-09T01:15:16.454Z,100
2022-12-09T01:20:16.362Z,100
2022-12-09T01:25:16.606Z,100
2022-12-09T01:30:16.553Z,100
2022-12-09T01:35:16.730Z,100
2022-12-09T01:40:16.838Z,100
2022-12-09T01:45:16.336Z,100
2022-12-09T01:50:16.687Z,100
2022-12-09T01:55:16.854Z,100
2022-12-09T02:00:17.592Z,100
2022-12-09T02:05:16.813Z,100
2022-12-09T02:10:16.847Z,100
2022-12-09T02:15:16.803Z,100
2022-12-09T02:20:16.754Z,100
2022-12-09T02:25:16.916Z,100
2022-12-09T02:30:16.669Z,100
2022-12-09T02:35:16.381Z,100
2022-12-09T02:40:16.905Z,100
2022-12-09T02:45:16.930Z,100
2022-12-09T02:50:16.751Z,100
2022-12-09T02:55:16.563Z,100
2022-12-09T03:00:16.927Z,100
2022-12-09T03:05:16.808Z,100
2022-12-09T03:10:17.074Z,100
2022-12-09T03:15:16.945Z,100
2022-12-09T03:20:16.764Z,100
2022-12-09T03:25:17.199Z,100
2022-12-09T03:30:16.981Z,100
2022-12-09T03:35:16.576Z,100
2022-12-09T03:40:17.755Z,100
2022-12-09T03:45:16.603Z,100
2022-12-09T03:50:17.091Z,100
2022-12-09T03:55:16.882Z,100
2022-12-09T04:00:18.315Z,100
2022-12-09T04:05:16.942Z,100
2022-12-09T04:10:16.836Z,100
2022-12-09T04:15:16.895Z,100
2022-12-09T04:20:16.783Z,100
2022-12-09T04:25:16.988Z,100
2022-12-09T04:30:17.116Z,100
2022-12-09T04:35:17.075Z,100
2022-12-09T04:40:23.165Z,100
2022-12-09T04:45:16.682Z,100
2022-12-09T04:50:17.125Z,100
2022-12-09T04:55:16.980Z,100
2022-12-09T05:00:18.014Z,100
2022-12-09T05:05:18.490Z,100
2022-12-09T05:10:18.102Z,100
2022-12-09T05:15:18.043Z,100
2022-12-09T05:20:18.269Z,100
2022-12-09T05:25:18.170Z,100
2022-12-09T05:30:18.082Z,100
2022-12-09T05:35:18.140Z,100
2022-12-09T05:40:18.463Z,100
2022-12-09T05:45:17.981Z,100
2022-12-09T05:50:18.745Z,100
2022-12-09T05:55:18.357Z,100
2022-12-09T06:00:19.299Z,100
2022-12-09T06:05:18.280Z,100
2022-12-09T06:10:18.938Z,100
2022-12-09T06:15:21.607Z,100
2022-12-09T06:20:18.232Z,100
2022-12-09T06:25:18.240Z,100
2022-12-09T06:30:18.070Z,100
2022-12-09T06:35:18.390Z,100
2022-12-09T06:40:18.692Z,100
2022-12-09T06:45:18.134Z,100
2022-12-09T06:50:18.728Z,100
2022-12-09T06:55:18.171Z,100
2022-12-09T07:00:18.416Z,100
2022-12-09T07:05:18.755Z,100
2022-12-09T07:10:18.488Z,100
2022-12-09T07:15:18.225Z,100
2022-12-09T07:20:16.461Z,100
2022-12-09T07:25:16.456Z,100
2022-12-09T07:30:16.451Z,100
2022-12-09T07:35:16.679Z,100
2022-12-09T07:40:16.775Z,100
2022-12-09T07:45:16.586Z,100
2022-12-09T07:50:16.614Z,100
2022-12-09T07:55:16.623Z,100
2022-12-09T08:00:17.839Z,100
2022-12-09T08:05:17.031Z,100
2022-12-09T08:10:16.645Z,100
2022-12-09T08:15:16.449Z,100
2022-12-09T08:20:16.989Z,100
2022-12-09T08:25:16.720Z,100
2022-12-09T08:30:17.035Z,100
2022-12-09T08:35:16.898Z,100
2022-12-09T08:40:18.666Z,100
2022-12-09T08:45:16.411Z,100
2022-12-09T08:50:17.426Z,100
2022-12-09T08:55:17.017Z,100
2022-12-09T09:00:16.868Z,100
2022-12-09T09:05:16.704Z,100
2022-12-09T09:10:17.938Z,100
2022-12-09T09:15:17.275Z,100
2022-12-09T09:20:17.123Z,100
2022-12-09T09:25:17.063Z,100
2022-12-09T09:30:17.060Z,100
2022-12-09T09:35:16.649Z,100
2022-12-09T09:40:16.905Z,100
2022-12-09T09:45:16.650Z,100
2022-12-09T09:50:17.474Z,100
2022-12-09T09:55:16.836Z,100
2022-12-09T10:00:18.010Z,100
2022-12-09T10:05:17.329Z,100
2022-12-09T10:10:17.467Z,100
2022-12-09T10:15:17.081Z,100
2022-12-09T10:20:17.725Z,100
2022-12-09T10:25:16.994Z,100
2022-12-09T10:30:17.457Z,100
2022-12-09T10:35:16.991Z,100
2022-12-09T10:40:17.682Z,100
2022-12-09T10:45:17.086Z,100
2022-12-09T10:50:17.636Z,100
2022-12-09T10:55:16.948Z,100
2022-12-09T11:00:17.362Z,100
2022-12-09T11:05:17.240Z,100
2022-12-09T11:10:17.766Z,100
2022-12-09T11:15:17.248Z,100
2022-12-09T11:20:17.591Z,100
2022-12-09T11:25:17.432Z,100
2022-12-09T11:30:18.377Z,100
2022-12-09T11:35:17.175Z,100
2022-12-09T11:40:17.030Z,100
2022-12-09T11:45:16.803Z,100
2022-12-09T11:50:17.019Z,100
2022-12-09T11:55:16.877Z,100
2022-12-09T12:00:18.426Z,100
2022-12-09T12:05:21.251Z,100
2022-12-09T12:10:16.988Z,100
2022-12-09T12:15:16.864Z,100
2022-12-09T12:20:17.021Z,100
2022-12-09T12:25:18.249Z,100
2022-12-09T12:30:17.076Z,100
2022-12-09T12:35:18.959Z,100
2022-12-09T12:40:21.932Z,100
2022-12-09T12:45:16.892Z,100
2022-12-09T12:50:17.036Z,100
2022-12-09T12:55:17.280Z,100
2022-12-09T13:00:17.039Z,100
2022-12-09T13:05:16.980Z,100
2022-12-09T13:10:17.388Z,100
2022-12-09T13:15:17.045Z,100
2022-12-09T13:20:17.124Z,100
2022-12-09T13:25:17.215Z,100
2022-12-09T13:30:17.247Z,100
2022-12-09T13:35:17.045Z,100
2022-12-09T13:40:17.207Z,100
2022-12-09T13:45:17.619Z,100
2022-12-09T13:50:17.183Z,100
2022-12-09T13:55:17.197Z,100
2022-12-09T14:00:18.217Z,100
2022-12-09T14:05:17.237Z,100
2022-12-09T14:10:17.394Z,100
2022-12-09T14:15:17.405Z,100
2022-12-09T14:20:17.880Z,100
2022-12-09T14:25:17.227Z,100
2022-12-09T14:30:17.239Z,100
2022-12-09T14:35:17.227Z,100
2022-12-09T14:40:17.502Z,100
2022-12-09T14:45:17.254Z,100
2022-12-09T14:50:17.481Z,100
2022-12-09T14:55:17.517Z,100
2022-12-09T15:00:17.274Z,100
2022-12-09T15:05:17.356Z,100
2022-12-09T15:10:17.454Z,100
2022-12-09T15:15:17.329Z,100
2022-12-09T15:20:17.833Z,100
2022-12-09T15:25:17.529Z,100
2022-12-09T15:30:17.852Z,100
2022-12-09T15:35:17.402Z,100
2022-12-09T15:40:17.682Z,100
2022-12-09T15:45:17.476Z,100
2022-12-09T15:50:17.511Z,100
2022-12-09T15:55:17.489Z,100
2022-12-09T16:00:19.309Z,97
2022-12-09T16:05:17.460Z,100
2022-12-09T16:10:17.655Z,95
2022-12-09T16:15:17.529Z,97
2022-12-09T16:20:17.551Z,95
2022-12-09T16:25:17.627Z,96
2022-12-09T16:30:17.573Z,96
2022-12-09T16:35:17.653Z,88
2022-12-09T16:40:18.067Z,87
2022-12-09T16:45:17.599Z,88
2022-12-09T16:50:17.695Z,84
2022-12-09T16:55:18.262Z,89
2022-12-09T17:00:17.685Z,82
2022-12-09T17:05:17.610Z,93
2022-12-09T17:10:18.371Z,83
2022-12-09T17:15:18.009Z,82
2022-12-09T17:20:17.713Z,80
2022-12-09T17:25:17.968Z,81
2022-12-09T17:30:18.685Z,79
2022-12-09T17:35:18.274Z,77
2022-12-09T17:40:17.808Z,79
2022-12-09T17:45:17.897Z,80
2022-12-09T17:50:18.145Z,75
2022-12-09T17:55:18.002Z,74
2022-12-09T18:00:18.793Z,73
2022-12-09T18:05:17.895Z,71
2022-12-09T18:10:18.027Z,73
2022-12-09T18:15:17.996Z,73
2022-12-09T18:20:18.224Z,72
2022-12-09T18:25:18.022Z,80
2022-12-09T18:30:17.873Z,75
2022-12-09T18:35:17.814Z,76
2022-12-09T18:40:18.090Z,70
2022-12-09T18:45:17.964Z,75
2022-12-09T18:50:17.960Z,74
2022-12-09T18:55:18.189Z,74
2022-12-09T19:00:18.031Z,65
2022-12-09T19:05:17.944Z,64
2022-12-09T19:10:18.173Z,68
2022-12-09T19:15:18.097Z,72
2022-12-09T19:20:18.098Z,66
2022-12-09T19:25:18.617Z,65
2022-12-09T19:30:18.207Z,65
2022-12-09T19:35:18.081Z,63
2022-12-09T19:40:18.397Z,65
2022-12-09T19:45:18.021Z,63
2022-12-09T19:50:18.119Z,62
2022-12-09T19:55:18.223Z,63
2022-12-09T20:00:19.502Z,67
2022-12-09T20:05:18.026Z,63
2022-12-09T20:10:18.548Z,66
2022-12-09T20:15:18.210Z,65
2022-12-09T20:20:18.431Z,62
2022-12-09T20:25:16.269Z,66
2022-12-09T20:30:16.568Z,64
2022-12-09T20:35:16.305Z,68
2022-12-09T20:40:16.293Z,69
2022-12-09T20:45:16.430Z,64
2022-12-09T20:50:16.258Z,64
2022-12-09T20:55:16.214Z,64
2022-12-09T21:00:16.484Z,66
2022-12-09T21:05:16.221Z,64
2022-12-09T21:10:16.649Z,59
2022-12-09T21:15:16.281Z,62
2022-12-09T21:20:16.624Z,60
2022-12-09T21:25:16.412Z,59
2022-12-09T21:30:16.620Z,63
2022-12-09T21:35:16.358Z,61
2022-12-09T21:40:16.597Z,63
2022-12-09T21:45:16.630Z,64
2022-12-09T21:50:16.453Z,65
2022-12-09T21:55:16.488Z,59
2022-12-09T22:00:17.373Z,59
2022-12-09T22:05:16.457Z,62
2022-12-09T22:10:16.532Z,59
2022-12-09T22:15:16.682Z,62
2022-12-09T22:21:00.640Z,64
2022-12-09T22:25:16.758Z,64
2022-12-09T22:30:16.595Z,66
2022-12-09T22:35:16.692Z,65
2022-12-09T22:40:16.848Z,60
2022-12-09T22:45:16.413Z,63
2022-12-09T22:50:16.649Z,62
2022-12-09T22:55:17.042Z,58
2022-12-09T23:00:16.676Z,60
2022-12-09T23:05:16.576Z,63
2022-12-09T23:10:16.705Z,63
2022-12-09T23:15:16.644Z,63
2022-12-09T23:20:16.765Z,65
2022-12-09T23:25:16.707Z,65
2022-12-09T23:30:16.913Z,64
2022-12-09T23:35:16.844Z,64
2022-12-09T23:40:17.125Z,67
2022-12-09T23:45:16.733Z,68
2022-12-09T23:50:16.893Z,65
2022-12-09T23:55:16.763Z,67
